Gunnar Thorson — OUDU — position and weather

sailwx.info

Track history (hours):
 
Tides and Currents Weather Stations Pressure Air Temp Water Temp Dewpoint Dewpoint Depression Visibility Wind Speed Wind Dir Waves Ship Positions

Oceanographic research ship Gunnar Thorson (Denmark)

Detailed information on ship capabilities available from University of Delaware's Ocean Information Center.

Last reported at 2014-Nov-28 03:13 UTC. Time now 2014-Nov-28 19:17 UTC.
Position N 57°18' E 010°51'.

Length 48 m; draft 4.2 m.

Type: Military. MMSI: 219263000.

Date/timePositionNaut miles runAvg speedWind from/ knotsBaromVisibWave heightAir tempDewpointWater temp
2014-Nov-28 03:13N 57°18' E 010°51'9 1.6
2014-Nov-27 21:28N 57°26' E 010°55'1010.5
2014-Nov-27 20:33N 57°35' E 011°04'51 2.0
2014-Nov-26 18:33N 56°44' E 010°47'1110.7
2014-Nov-26 17:33N 56°52' E 010°34'1110.7
2014-Nov-26 16:33N 56°59' E 010°19'1010.2
2014-Nov-26 15:33N 57°04' E 010°03'4 3.9
2014-Nov-26 14:32N 57°03' E 009°56'0 0.0
2014-Nov-26 13:32N 57°03' E 009°56'0 0.0
2014-Nov-26 12:29N 57°03' E 009°56'0 0.0
2014-Nov-26 11:32N 57°03' E 009°56'0 0.0
2014-Nov-26 10:32N 57°03' E 009°56'0 0.0
2014-Nov-26 09:32N 57°03' E 009°56'0 0.0
2014-Nov-26 08:29N 57°03' E 009°56'0 0.0
2014-Nov-26 07:29N 57°03' E 009°56'0 0.0
2014-Nov-26 06:29N 57°03' E 009°56'0 0.0
2014-Nov-26 05:29N 57°03' E 009°56'0 0.0
2014-Nov-26 04:23N 57°03' E 009°56'0 0.0
2014-Nov-26 03:29N 57°03' E 009°56'0 0.0
2014-Nov-26 02:32N 57°03' E 009°56'0 0.0
2014-Nov-26 01:32N 57°03' E 009°56'0 0.0
2014-Nov-26 00:32N 57°03' E 009°56'0 0.0
2014-Nov-25 23:29N 57°03' E 009°56'0 0.0
2014-Nov-25 22:32N 57°03' E 009°56'0 0.0
2014-Nov-25 21:29N 57°03' E 009°56'0 0.0
2014-Nov-25 20:29N 57°03' E 009°56'0 0.0
2014-Nov-25 19:29N 57°03' E 009°56'0 0.0
2014-Nov-25 18:29N 57°03' E 009°56'0 0.0
2014-Nov-25 17:28N 57°03' E 009°56'0 0.0
2014-Nov-25 16:28N 57°03' E 009°56'0 0.0
2014-Nov-25 15:31N 57°03' E 009°56'0 0.0
2014-Nov-25 14:33N 57°03' E 009°56'6 6.1
2014-Nov-25 13:33N 57°02' E 010°07'  
Track history (hours):
 
Tides and Currents Weather Stations Pressure Air Temp Water Temp Dewpoint Dewpoint Depression Visibility Wind Speed Wind Dir Waves Ship Positions

Oceanographic research ship Gunnar Thorson (Denmark)

Detailed information on ship capabilities available from University of Delaware's Ocean Information Center.

Last reported at 2014-Nov-28 03:13 UTC. Time now 2014-Nov-28 19:17 UTC.
Position N 57°18' E 010°51'.

Length 48 m; draft 4.2 m.

Type: Military. MMSI: 219263000.

Date/timePositionNaut miles runAvg speedWind from/ knotsBaromVisibWave heightAir tempDewpointWater temp
2014-Nov-28 03:13N 57°18' E 010°51'9 1.6
2014-Nov-27 21:28N 57°26' E 010°55'1010.5
2014-Nov-27 20:33N 57°35' E 011°04'51 2.0
2014-Nov-26 18:33N 56°44' E 010°47'1110.7
2014-Nov-26 17:33N 56°52' E 010°34'1110.7
2014-Nov-26 16:33N 56°59' E 010°19'1010.2
2014-Nov-26 15:33N 57°04' E 010°03'4 3.9
2014-Nov-26 14:32N 57°03' E 009°56'0 0.0
2014-Nov-26 13:32N 57°03' E 009°56'0 0.0
2014-Nov-26 12:29N 57°03' E 009°56'0 0.0
2014-Nov-26 11:32N 57°03' E 009°56'0 0.0
2014-Nov-26 10:32N 57°03' E 009°56'0 0.0
2014-Nov-26 09:32N 57°03' E 009°56'0 0.0
2014-Nov-26 08:29N 57°03' E 009°56'0 0.0
2014-Nov-26 07:29N 57°03' E 009°56'0 0.0
2014-Nov-26 06:29N 57°03' E 009°56'0 0.0
2014-Nov-26 05:29N 57°03' E 009°56'0 0.0
2014-Nov-26 04:23N 57°03' E 009°56'0 0.0
2014-Nov-26 03:29N 57°03' E 009°56'0 0.0
2014-Nov-26 02:32N 57°03' E 009°56'0 0.0
2014-Nov-26 01:32N 57°03' E 009°56'0 0.0
2014-Nov-26 00:32N 57°03' E 009°56'0 0.0
2014-Nov-25 23:29N 57°03' E 009°56'0 0.0
2014-Nov-25 22:32N 57°03' E 009°56'0 0.0
2014-Nov-25 21:29N 57°03' E 009°56'0 0.0
2014-Nov-25 20:29N 57°03' E 009°56'0 0.0
2014-Nov-25 19:29N 57°03' E 009°56'0 0.0
2014-Nov-25 18:29N 57°03' E 009°56'0 0.0
2014-Nov-25 17:28N 57°03' E 009°56'0 0.0
2014-Nov-25 16:28N 57°03' E 009°56'0 0.0
2014-Nov-25 15:31N 57°03' E 009°56'0 0.0
2014-Nov-25 14:33N 57°03' E 009°56'6 6.1
2014-Nov-25 13:33N 57°02' E 010°07'  

Dump ship's entire track history